sensor_id;sensor_type;location;lat;lon;timestamp;P1;durP1;ratioP1;P2;durP2;ratioP2
14187;SDS011;7175;51.978;5.330;2023-04-03T00:01:21;22.50;;;20.80;;
14187;SDS011;7175;51.978;5.330;2023-04-03T00:03:49;22.77;;;21.07;;
14187;SDS011;7175;51.978;5.330;2023-04-03T00:06:19;22.70;;;21.00;;
14187;SDS011;7175;51.978;5.330;2023-04-03T00:08:48;22.93;;;21.23;;
14187;SDS011;7175;51.978;5.330;2023-04-03T00:11:17;23.03;;;21.33;;
14187;SDS011;7175;51.978;5.330;2023-04-03T00:13:47;23.20;;;21.50;;
14187;SDS011;7175;51.978;5.330;2023-04-03T00:16:15;23.10;;;21.40;;
14187;SDS011;7175;51.978;5.330;2023-04-03T00:18:44;24.63;;;22.83;;
14187;SDS011;7175;51.978;5.330;2023-04-03T00:21:13;23.73;;;21.93;;
14187;SDS011;7175;51.978;5.330;2023-04-03T00:23:42;23.40;;;21.70;;
14187;SDS011;7175;51.978;5.330;2023-04-03T00:26:10;23.83;;;22.03;;
14187;SDS011;7175;51.978;5.330;2023-04-03T00:28:41;23.97;;;22.17;;
14187;SDS011;7175;51.978;5.330;2023-04-03T00:31:09;23.67;;;21.87;;
14187;SDS011;7175;51.978;5.330;2023-04-03T00:33:38;23.37;;;21.57;;
14187;SDS011;7175;51.978;5.330;2023-04-03T00:36:07;23.60;;;21.80;;
14187;SDS011;7175;51.978;5.330;2023-04-03T00:38:37;23.50;;;21.70;;
14187;SDS011;7175;51.978;5.330;2023-04-03T00:41:06;24.80;;;22.90;;
14187;SDS011;7175;51.978;5.330;2023-04-03T00:43:35;24.70;;;22.90;;
14187;SDS011;7175;51.978;5.330;2023-04-03T00:46:05;24.33;;;22.53;;
14187;SDS011;7175;51.978;5.330;2023-04-03T00:48:34;24.30;;;22.50;;
14187;SDS011;7175;51.978;5.330;2023-04-03T00:51:07;24.40;;;22.60;;
14187;SDS011;7175;51.978;5.330;2023-04-03T00:53:40;24.70;;;22.90;;
14187;SDS011;7175;51.978;5.330;2023-04-03T00:56:12;23.80;;;22.00;;
14187;SDS011;7175;51.978;5.330;2023-04-03T00:58:44;23.73;;;21.93;;
14187;SDS011;7175;51.978;5.330;2023-04-03T01:01:18;24.07;;;22.27;;
14187;SDS011;7175;51.978;5.330;2023-04-03T01:03:50;24.70;;;22.87;;
14187;SDS011;7175;51.978;5.330;2023-04-03T01:06:20;24.67;;;22.87;;
14187;SDS011;7175;51.978;5.330;2023-04-03T01:08:52;24.50;;;22.70;;
14187;SDS011;7175;51.978;5.330;2023-04-03T01:11:22;24.57;;;22.67;;
14187;SDS011;7175;51.978;5.330;2023-04-03T01:13:51;24.07;;;22.27;;
14187;SDS011;7175;51.978;5.330;2023-04-03T01:16:21;24.60;;;22.77;;
14187;SDS011;7175;51.978;5.330;2023-04-03T01:18:49;25.90;;;24.00;;
14187;SDS011;7175;51.978;5.330;2023-04-03T01:24:33;25.10;;;23.20;;
14187;SDS011;7175;51.978;5.330;2023-04-03T01:27:03;26.00;;;24.10;;
14187;SDS011;7175;51.978;5.330;2023-04-03T01:29:33;25.83;;;23.93;;
14187;SDS011;7175;51.978;5.330;2023-04-03T01:32:03;25.80;;;23.90;;
14187;SDS011;7175;51.978;5.330;2023-04-03T01:34:32;25.73;;;23.83;;
14187;SDS011;7175;51.978;5.330;2023-04-03T01:37:01;25.63;;;23.73;;
14187;SDS011;7175;51.978;5.330;2023-04-03T01:39:29;26.20;;;24.30;;
14187;SDS011;7175;51.978;5.330;2023-04-03T01:41:58;26.37;;;24.47;;
14187;SDS011;7175;51.978;5.330;2023-04-03T01:44:26;26.27;;;24.37;;
14187;SDS011;7175;51.978;5.330;2023-04-03T01:46:55;26.17;;;24.27;;
14187;SDS011;7175;51.978;5.330;2023-04-03T01:49:25;26.60;;;24.70;;
14187;SDS011;7175;51.978;5.330;2023-04-03T01:51:54;29.03;;;26.93;;
14187;SDS011;7175;51.978;5.330;2023-04-03T01:54:22;27.80;;;25.80;;
14187;SDS011;7175;51.978;5.330;2023-04-03T01:56:51;27.27;;;25.27;;
14187;SDS011;7175;51.978;5.330;2023-04-03T01:59:20;27.27;;;25.27;;
14187;SDS011;7175;51.978;5.330;2023-04-03T02:01:48;27.67;;;25.67;;
14187;SDS011;7175;51.978;5.330;2023-04-03T02:04:17;28.27;;;26.27;;
14187;SDS011;7175;51.978;5.330;2023-04-03T02:06:47;28.37;;;26.37;;
14187;SDS011;7175;51.978;5.330;2023-04-03T02:09:16;29.03;;;26.93;;
14187;SDS011;7175;51.978;5.330;2023-04-03T02:11:45;28.97;;;26.87;;
14187;SDS011;7175;51.978;5.330;2023-04-03T02:14:13;30.07;;;27.97;;
14187;SDS011;7175;51.978;5.330;2023-04-03T02:16:42;30.37;;;28.27;;
14187;SDS011;7175;51.978;5.330;2023-04-03T02:19:10;30.53;;;28.37;;
14187;SDS011;7175;51.978;5.330;2023-04-03T02:21:38;31.23;;;29.03;;
14187;SDS011;7175;51.978;5.330;2023-04-03T02:24:08;31.47;;;29.27;;
14187;SDS011;7175;51.978;5.330;2023-04-03T02:26:37;32.10;;;29.90;;
14187;SDS011;7175;51.978;5.330;2023-04-03T02:29:05;31.70;;;29.50;;
14187;SDS011;7175;51.978;5.330;2023-04-03T02:31:34;33.17;;;30.87;;
14187;SDS011;7175;51.978;5.330;2023-04-03T02:34:02;32.67;;;30.37;;
14187;SDS011;7175;51.978;5.330;2023-04-03T02:36:31;33.50;;;31.20;;
14187;SDS011;7175;51.978;5.330;2023-04-03T02:39:00;33.47;;;31.17;;
14187;SDS011;7175;51.978;5.330;2023-04-03T02:41:30;34.63;;;32.23;;
14187;SDS011;7175;51.978;5.330;2023-04-03T02:44:01;35.77;;;33.37;;
14187;SDS011;7175;51.978;5.330;2023-04-03T02:46:31;36.17;;;33.67;;
14187;SDS011;7175;51.978;5.330;2023-04-03T02:49:00;37.70;;;35.20;;
14187;SDS011;7175;51.978;5.330;2023-04-03T02:51:28;38.13;;;35.53;;
14187;SDS011;7175;51.978;5.330;2023-04-03T02:53:57;39.27;;;36.67;;
14187;SDS011;7175;51.978;5.330;2023-04-03T02:56:26;39.87;;;37.27;;
14187;SDS011;7175;51.978;5.330;2023-04-03T02:58:56;40.80;;;38.10;;
14187;SDS011;7175;51.978;5.330;2023-04-03T03:01:24;40.67;;;37.97;;
14187;SDS011;7175;51.978;5.330;2023-04-03T03:03:55;41.37;;;38.67;;
14187;SDS011;7175;51.978;5.330;2023-04-03T03:06:23;42.77;;;39.97;;
14187;SDS011;7175;51.978;5.330;2023-04-03T03:08:52;41.80;;;39.10;;
14187;SDS011;7175;51.978;5.330;2023-04-03T03:11:20;44.40;;;41.60;;
14187;SDS011;7175;51.978;5.330;2023-04-03T03:13:48;43.53;;;40.73;;
14187;SDS011;7175;51.978;5.330;2023-04-03T03:16:18;43.87;;;41.07;;
14187;SDS011;7175;51.978;5.330;2023-04-03T03:18:47;43.43;;;40.63;;
14187;SDS011;7175;51.978;5.330;2023-04-03T03:21:15;44.40;;;41.60;;
14187;SDS011;7175;51.978;5.330;2023-04-03T03:23:44;45.40;;;42.50;;
14187;SDS011;7175;51.978;5.330;2023-04-03T03:26:12;46.70;;;43.80;;
14187;SDS011;7175;51.978;5.330;2023-04-03T03:28:41;47.43;;;44.43;;
14187;SDS011;7175;51.978;5.330;2023-04-03T03:31:09;48.40;;;45.40;;
14187;SDS011;7175;51.978;5.330;2023-04-03T03:33:40;49.30;;;46.20;;
14187;SDS011;7175;51.978;5.330;2023-04-03T03:36:09;49.20;;;46.10;;
14187;SDS011;7175;51.978;5.330;2023-04-03T03:38:38;49.90;;;46.80;;
14187;SDS011;7175;51.978;5.330;2023-04-03T03:41:07;50.33;;;47.23;;
14187;SDS011;7175;51.978;5.330;2023-04-03T03:43:36;52.00;;;48.73;;
14187;SDS011;7175;51.978;5.330;2023-04-03T03:46:04;52.33;;;49.13;;
14187;SDS011;7175;51.978;5.330;2023-04-03T03:48:33;54.20;;;50.90;;
14187;SDS011;7175;51.978;5.330;2023-04-03T03:51:03;55.93;;;52.53;;
14187;SDS011;7175;51.978;5.330;2023-04-03T03:53:31;56.50;;;53.10;;
14187;SDS011;7175;51.978;5.330;2023-04-03T03:56:00;56.47;;;53.07;;
14187;SDS011;7175;51.978;5.330;2023-04-03T03:58:29;57.37;;;53.97;;
14187;SDS011;7175;51.978;5.330;2023-04-03T04:00:59;56.67;;;53.27;;
14187;SDS011;7175;51.978;5.330;2023-04-03T04:03:28;58.60;;;55.10;;
14187;SDS011;7175;51.978;5.330;2023-04-03T04:05:57;58.97;;;55.47;;
14187;SDS011;7175;51.978;5.330;2023-04-03T04:08:27;58.77;;;55.27;;
14187;SDS011;7175;51.978;5.330;2023-04-03T04:10:55;60.40;;;56.80;;
14187;SDS011;7175;51.978;5.330;2023-04-03T04:13:24;63.03;;;59.30;;
14187;SDS011;7175;51.978;5.330;2023-04-03T04:15:52;63.40;;;59.60;;
14187;SDS011;7175;51.978;5.330;2023-04-03T04:18:21;64.10;;;60.30;;
14187;SDS011;7175;51.978;5.330;2023-04-03T04:20:50;65.27;;;61.40;;
14187;SDS011;7175;51.978;5.330;2023-04-03T04:23:19;65.67;;;61.80;;
14187;SDS011;7175;51.978;5.330;2023-04-03T04:25:48;65.07;;;61.27;;
14187;SDS011;7175;51.978;5.330;2023-04-03T04:28:17;67.27;;;63.37;;
14187;SDS011;7175;51.978;5.330;2023-04-03T04:30:46;67.93;;;64.03;;
14187;SDS011;7175;51.978;5.330;2023-04-03T04:33:14;65.80;;;61.90;;
14187;SDS011;7175;51.978;5.330;2023-04-03T04:35:43;68.30;;;64.33;;
14187;SDS011;7175;51.978;5.330;2023-04-03T04:38:12;66.80;;;62.90;;
14187;SDS011;7175;51.978;5.330;2023-04-03T04:40:40;68.53;;;64.53;;
14187;SDS011;7175;51.978;5.330;2023-04-03T04:43:10;68.20;;;64.20;;
14187;SDS011;7175;51.978;5.330;2023-04-03T04:45:41;69.43;;;65.33;;
14187;SDS011;7175;51.978;5.330;2023-04-03T04:48:09;73.90;;;69.70;;
14187;SDS011;7175;51.978;5.330;2023-04-03T04:50:38;70.23;;;66.13;;
14187;SDS011;7175;51.978;5.330;2023-04-03T04:53:06;76.07;;;71.67;;
14187;SDS011;7175;51.978;5.330;2023-04-03T04:55:35;75.80;;;71.50;;
14187;SDS011;7175;51.978;5.330;2023-04-03T04:58:04;78.70;;;74.20;;
14187;SDS011;7175;51.978;5.330;2023-04-03T05:00:33;80.10;;;75.60;;
14187;SDS011;7175;51.978;5.330;2023-04-03T05:03:02;78.00;;;73.60;;
14187;SDS011;7175;51.978;5.330;2023-04-03T05:05:31;76.83;;;72.47;;
14187;SDS011;7175;51.978;5.330;2023-04-03T05:07:59;73.20;;;69.00;;
14187;SDS011;7175;51.978;5.330;2023-04-03T05:10:27;70.70;;;66.60;;
14187;SDS011;7175;51.978;5.330;2023-04-03T05:12:56;68.93;;;64.83;;
14187;SDS011;7175;51.978;5.330;2023-04-03T05:15:25;65.90;;;61.90;;
14187;SDS011;7175;51.978;5.330;2023-04-03T05:17:55;67.80;;;63.70;;
14187;SDS011;7175;51.978;5.330;2023-04-03T05:20:24;69.03;;;64.83;;
14187;SDS011;7175;51.978;5.330;2023-04-03T05:22:53;69.70;;;65.40;;
14187;SDS011;7175;51.978;5.330;2023-04-03T05:25:21;73.80;;;69.30;;
14187;SDS011;7175;51.978;5.330;2023-04-03T05:27:52;74.77;;;70.27;;
14187;SDS011;7175;51.978;5.330;2023-04-03T05:30:21;75.87;;;71.17;;
14187;SDS011;7175;51.978;5.330;2023-04-03T05:32:50;78.73;;;74.03;;
14187;SDS011;7175;51.978;5.330;2023-04-03T05:35:20;79.03;;;74.33;;
14187;SDS011;7175;51.978;5.330;2023-04-03T05:37:48;81.20;;;76.43;;
14187;SDS011;7175;51.978;5.330;2023-04-03T05:40:18;81.13;;;76.33;;
14187;SDS011;7175;51.978;5.330;2023-04-03T05:42:47;84.70;;;79.70;;
14187;SDS011;7175;51.978;5.330;2023-04-03T05:45:15;87.03;;;81.93;;
14187;SDS011;7175;51.978;5.330;2023-04-03T05:47:44;85.07;;;80.00;;
14187;SDS011;7175;51.978;5.330;2023-04-03T05:50:14;82.17;;;77.27;;
14187;SDS011;7175;51.978;5.330;2023-04-03T05:52:44;80.23;;;75.43;;
14187;SDS011;7175;51.978;5.330;2023-04-03T05:55:14;77.97;;;73.27;;
14187;SDS011;7175;51.978;5.330;2023-04-03T05:57:43;76.60;;;71.90;;
14187;SDS011;7175;51.978;5.330;2023-04-03T06:00:13;75.57;;;70.97;;
14187;SDS011;7175;51.978;5.330;2023-04-03T06:02:42;75.37;;;70.77;;
14187;SDS011;7175;51.978;5.330;2023-04-03T06:05:11;77.43;;;72.73;;
14187;SDS011;7175;51.978;5.330;2023-04-03T06:07:39;75.40;;;70.70;;
14187;SDS011;7175;51.978;5.330;2023-04-03T06:10:10;69.20;;;64.80;;
14187;SDS011;7175;51.978;5.330;2023-04-03T06:12:40;65.33;;;61.13;;
14187;SDS011;7175;51.978;5.330;2023-04-03T06:15:08;61.40;;;57.40;;
14187;SDS011;7175;51.978;5.330;2023-04-03T06:17:39;60.07;;;56.07;;
14187;SDS011;7175;51.978;5.330;2023-04-03T06:20:08;55.17;;;51.47;;
14187;SDS011;7175;51.978;5.330;2023-04-03T06:22:38;48.50;;;45.10;;
14187;SDS011;7175;51.978;5.330;2023-04-03T06:25:07;47.47;;;44.17;;
14187;SDS011;7175;51.978;5.330;2023-04-03T06:27:38;42.30;;;39.30;;
14187;SDS011;7175;51.978;5.330;2023-04-03T06:30:07;41.50;;;38.33;;
14187;SDS011;7175;51.978;5.330;2023-04-03T06:32:37;37.67;;;34.87;;
14187;SDS011;7175;51.978;5.330;2023-04-03T06:35:06;35.80;;;33.10;;
14187;SDS011;7175;51.978;5.330;2023-04-03T06:37:35;33.40;;;30.80;;
14187;SDS011;7175;51.978;5.330;2023-04-03T06:40:04;34.17;;;31.57;;
14187;SDS011;7175;51.978;5.330;2023-04-03T06:42:35;35.57;;;32.60;;
14187;SDS011;7175;51.978;5.330;2023-04-03T06:45:04;31.23;;;28.77;;
14187;SDS011;7175;51.978;5.330;2023-04-03T06:47:34;28.20;;;25.90;;
14187;SDS011;7175;51.978;5.330;2023-04-03T06:50:02;26.90;;;24.70;;
14187;SDS011;7175;51.978;5.330;2023-04-03T06:52:33;27.40;;;25.20;;
14187;SDS011;7175;51.978;5.330;2023-04-03T06:55:04;26.70;;;24.60;;
14187;SDS011;7175;51.978;5.330;2023-04-03T06:57:33;24.60;;;22.60;;
14187;SDS011;7175;51.978;5.330;2023-04-03T07:00:03;22.70;;;20.90;;
14187;SDS011;7175;51.978;5.330;2023-04-03T07:02:33;22.33;;;20.53;;
14187;SDS011;7175;51.978;5.330;2023-04-03T07:05:02;21.60;;;19.90;;
14187;SDS011;7175;51.978;5.330;2023-04-03T07:07:31;20.80;;;19.10;;
14187;SDS011;7175;51.978;5.330;2023-04-03T07:10:00;21.80;;;20.10;;
14187;SDS011;7175;51.978;5.330;2023-04-03T07:12:29;21.37;;;19.67;;
14187;SDS011;7175;51.978;5.330;2023-04-03T07:14:59;20.83;;;19.23;;
14187;SDS011;7175;51.978;5.330;2023-04-03T07:17:27;20.73;;;19.10;;
14187;SDS011;7175;51.978;5.330;2023-04-03T07:19:56;20.90;;;19.30;;
14187;SDS011;7175;51.978;5.330;2023-04-03T07:22:24;20.93;;;19.33;;
14187;SDS011;7175;51.978;5.330;2023-04-03T07:24:52;20.87;;;19.27;;
14187;SDS011;7175;51.978;5.330;2023-04-03T07:27:21;21.67;;;19.97;;
14187;SDS011;7175;51.978;5.330;2023-04-03T07:29:49;20.70;;;19.10;;
14187;SDS011;7175;51.978;5.330;2023-04-03T07:32:21;20.43;;;18.83;;
14187;SDS011;7175;51.978;5.330;2023-04-03T07:34:50;20.43;;;18.83;;
14187;SDS011;7175;51.978;5.330;2023-04-03T07:37:19;20.37;;;18.77;;
14187;SDS011;7175;51.978;5.330;2023-04-03T07:39:47;20.27;;;18.67;;
14187;SDS011;7175;51.978;5.330;2023-04-03T07:42:16;20.00;;;18.40;;
14187;SDS011;7175;51.978;5.330;2023-04-03T07:44:44;20.50;;;18.90;;
14187;SDS011;7175;51.978;5.330;2023-04-03T07:47:13;20.70;;;19.10;;
14187;SDS011;7175;51.978;5.330;2023-04-03T07:49:46;20.77;;;19.17;;
14187;SDS011;7175;51.978;5.330;2023-04-03T07:52:15;20.20;;;18.60;;
14187;SDS011;7175;51.978;5.330;2023-04-03T07:54:43;21.07;;;19.47;;
14187;SDS011;7175;51.978;5.330;2023-04-03T07:57:13;20.27;;;18.67;;
14187;SDS011;7175;51.978;5.330;2023-04-03T07:59:41;20.27;;;18.67;;
14187;SDS011;7175;51.978;5.330;2023-04-03T08:02:10;20.10;;;18.50;;
14187;SDS011;7175;51.978;5.330;2023-04-03T08:04:39;19.73;;;18.23;;
14187;SDS011;7175;51.978;5.330;2023-04-03T08:07:08;20.80;;;19.20;;
14187;SDS011;7175;51.978;5.330;2023-04-03T08:09:37;19.93;;;18.33;;
14187;SDS011;7175;51.978;5.330;2023-04-03T08:12:05;20.20;;;18.60;;
14187;SDS011;7175;51.978;5.330;2023-04-03T08:14:33;20.00;;;18.40;;
14187;SDS011;7175;51.978;5.330;2023-04-03T08:17:02;20.20;;;18.60;;
14187;SDS011;7175;51.978;5.330;2023-04-03T08:19:31;20.37;;;18.77;;
14187;SDS011;7175;51.978;5.330;2023-04-03T08:22:00;20.10;;;18.50;;
14187;SDS011;7175;51.978;5.330;2023-04-03T08:24:30;20.30;;;18.70;;
14187;SDS011;7175;51.978;5.330;2023-04-03T08:26:59;20.30;;;18.70;;
14187;SDS011;7175;51.978;5.330;2023-04-03T08:29:28;20.43;;;18.83;;
14187;SDS011;7175;51.978;5.330;2023-04-03T08:31:59;20.27;;;18.67;;
14187;SDS011;7175;51.978;5.330;2023-04-03T08:34:27;20.43;;;18.83;;
14187;SDS011;7175;51.978;5.330;2023-04-03T08:36:56;19.80;;;18.20;;
14187;SDS011;7175;51.978;5.330;2023-04-03T08:39:24;20.03;;;18.43;;
14187;SDS011;7175;51.978;5.330;2023-04-03T08:41:54;19.97;;;18.37;;
14187;SDS011;7175;51.978;5.330;2023-04-03T08:44:26;20.10;;;18.50;;
14187;SDS011;7175;51.978;5.330;2023-04-03T08:47:10;20.47;;;18.87;;
14187;SDS011;7175;51.978;5.330;2023-04-03T08:49:47;20.13;;;18.53;;
14187;SDS011;7175;51.978;5.330;2023-04-03T08:52:20;20.10;;;18.50;;
14187;SDS011;7175;51.978;5.330;2023-04-03T08:54:57;19.70;;;18.20;;
14187;SDS011;7175;51.978;5.330;2023-04-03T08:57:32;19.87;;;18.33;;
14187;SDS011;7175;51.978;5.330;2023-04-03T09:00:05;20.20;;;18.60;;
14187;SDS011;7175;51.978;5.330;2023-04-03T09:02:40;19.37;;;17.87;;
14187;SDS011;7175;51.978;5.330;2023-04-03T09:05:14;19.37;;;17.87;;
14187;SDS011;7175;51.978;5.330;2023-04-03T09:07:44;19.47;;;17.97;;
14187;SDS011;7175;51.978;5.330;2023-04-03T09:10:15;19.23;;;17.73;;
14187;SDS011;7175;51.978;5.330;2023-04-03T09:12:53;19.10;;;17.60;;
14187;SDS011;7175;51.978;5.330;2023-04-03T09:15:27;19.50;;;18.00;;
14187;SDS011;7175;51.978;5.330;2023-04-03T09:18:05;18.97;;;17.47;;
14187;SDS011;7175;51.978;5.330;2023-04-03T09:20:42;19.17;;;17.67;;
14187;SDS011;7175;51.978;5.330;2023-04-03T09:23:19;18.90;;;17.40;;
14187;SDS011;7175;51.978;5.330;2023-04-03T09:25:53;19.10;;;17.60;;
14187;SDS011;7175;51.978;5.330;2023-04-03T09:28:27;18.60;;;17.10;;
14187;SDS011;7175;51.978;5.330;2023-04-03T09:31:13;18.90;;;17.40;;
14187;SDS011;7175;51.978;5.330;2023-04-03T09:33:47;18.90;;;17.40;;
14187;SDS011;7175;51.978;5.330;2023-04-03T09:39:06;18.73;;;17.23;;
14187;SDS011;7175;51.978;5.330;2023-04-03T09:41:39;18.77;;;17.27;;
14187;SDS011;7175;51.978;5.330;2023-04-03T09:44:24;18.80;;;17.30;;
14187;SDS011;7175;51.978;5.330;2023-04-03T09:46:54;20.47;;;18.77;;
14187;SDS011;7175;51.978;5.330;2023-04-03T09:49:23;18.90;;;17.40;;
14187;SDS011;7175;51.978;5.330;2023-04-03T09:51:52;18.83;;;17.33;;
14187;SDS011;7175;51.978;5.330;2023-04-03T09:57:10;18.63;;;17.13;;
14187;SDS011;7175;51.978;5.330;2023-04-03T09:59:43;18.70;;;17.20;;
14187;SDS011;7175;51.978;5.330;2023-04-03T10:02:22;18.93;;;17.43;;
14187;SDS011;7175;51.978;5.330;2023-04-03T10:04:58;19.13;;;17.63;;
14187;SDS011;7175;51.978;5.330;2023-04-03T10:07:31;19.50;;;17.80;;
14187;SDS011;7175;51.978;5.330;2023-04-03T10:10:14;19.30;;;17.80;;
14187;SDS011;7175;51.978;5.330;2023-04-03T10:12:46;19.20;;;17.70;;
14187;SDS011;7175;51.978;5.330;2023-04-03T10:15:17;19.10;;;17.60;;
14187;SDS011;7175;51.978;5.330;2023-04-03T10:17:52;19.10;;;17.60;;
14187;SDS011;7175;51.978;5.330;2023-04-03T10:20:33;19.10;;;17.60;;
14187;SDS011;7175;51.978;5.330;2023-04-03T10:23:12;19.20;;;17.70;;
14187;SDS011;7175;51.978;5.330;2023-04-03T10:25:48;19.03;;;17.53;;
14187;SDS011;7175;51.978;5.330;2023-04-03T10:28:31;19.00;;;17.50;;
14187;SDS011;7175;51.978;5.330;2023-04-03T10:31:10;18.87;;;17.37;;
14187;SDS011;7175;51.978;5.330;2023-04-03T10:33:49;18.77;;;17.27;;
14187;SDS011;7175;51.978;5.330;2023-04-03T10:36:26;18.77;;;17.27;;
14187;SDS011;7175;51.978;5.330;2023-04-03T10:39:04;18.57;;;17.07;;
14187;SDS011;7175;51.978;5.330;2023-04-03T10:41:46;18.73;;;17.23;;
14187;SDS011;7175;51.978;5.330;2023-04-03T10:44:44;19.00;;;17.50;;
14187;SDS011;7175;51.978;5.330;2023-04-03T10:47:27;18.70;;;17.20;;
14187;SDS011;7175;51.978;5.330;2023-04-03T10:50:08;19.00;;;17.50;;
14187;SDS011;7175;51.978;5.330;2023-04-03T10:52:52;18.73;;;17.23;;
14187;SDS011;7175;51.978;5.330;2023-04-03T10:55:29;18.80;;;17.30;;
14187;SDS011;7175;51.978;5.330;2023-04-03T10:58:02;18.53;;;17.03;;
14187;SDS011;7175;51.978;5.330;2023-04-03T11:00:36;18.80;;;17.30;;
14187;SDS011;7175;51.978;5.330;2023-04-03T11:03:12;18.87;;;17.37;;
14187;SDS011;7175;51.978;5.330;2023-04-03T11:05:44;18.53;;;17.03;;
14187;SDS011;7175;51.978;5.330;2023-04-03T11:08:19;18.87;;;17.37;;
14187;SDS011;7175;51.978;5.330;2023-04-03T11:10:55;18.70;;;17.20;;
14187;SDS011;7175;51.978;5.330;2023-04-03T11:13:28;18.47;;;16.97;;
14187;SDS011;7175;51.978;5.330;2023-04-03T11:16:02;18.63;;;17.13;;
14187;SDS011;7175;51.978;5.330;2023-04-03T11:18:37;18.63;;;17.13;;
14187;SDS011;7175;51.978;5.330;2023-04-03T11:21:12;18.70;;;17.20;;
14187;SDS011;7175;51.978;5.330;2023-04-03T11:23:48;18.63;;;17.13;;
14187;SDS011;7175;51.978;5.330;2023-04-03T11:26:19;18.43;;;16.93;;
14187;SDS011;7175;51.978;5.330;2023-04-03T11:28:53;18.63;;;17.13;;
14187;SDS011;7175;51.978;5.330;2023-04-03T11:31:43;18.60;;;17.10;;
14187;SDS011;7175;51.978;5.330;2023-04-03T11:34:29;18.77;;;17.27;;
14187;SDS011;7175;51.978;5.330;2023-04-03T11:37:05;18.50;;;17.00;;
14187;SDS011;7175;51.978;5.330;2023-04-03T11:39:40;18.70;;;17.20;;
14187;SDS011;7175;51.978;5.330;2023-04-03T11:42:23;18.73;;;17.23;;
14187;SDS011;7175;51.978;5.330;2023-04-03T11:48:05;18.80;;;17.30;;
14187;SDS011;7175;51.978;5.330;2023-04-03T11:50:52;18.83;;;17.30;;
14187;SDS011;7175;51.978;5.330;2023-04-03T11:53:28;18.67;;;17.17;;
14187;SDS011;7175;51.978;5.330;2023-04-03T11:56:03;19.30;;;17.80;;
14187;SDS011;7175;51.978;5.330;2023-04-03T12:01:54;18.80;;;17.30;;
14187;SDS011;7175;51.978;5.330;2023-04-03T12:04:26;18.77;;;17.27;;
14187;SDS011;7175;51.978;5.330;2023-04-03T12:07:11;18.90;;;17.40;;
14187;SDS011;7175;51.978;5.330;2023-04-03T12:12:58;18.90;;;17.40;;
14187;SDS011;7175;51.978;5.330;2023-04-03T12:24:29;19.17;;;17.57;;
14187;SDS011;7175;51.978;5.330;2023-04-03T12:27:02;19.03;;;17.43;;
14187;SDS011;7175;51.978;5.330;2023-04-03T12:29:34;18.90;;;17.40;;
14187;SDS011;7175;51.978;5.330;2023-04-03T12:32:12;19.13;;;17.53;;
14187;SDS011;7175;51.978;5.330;2023-04-03T12:34:58;19.20;;;17.60;;
14187;SDS011;7175;51.978;5.330;2023-04-03T12:37:40;19.27;;;17.67;;
14187;SDS011;7175;51.978;5.330;2023-04-03T12:40:23;19.13;;;17.53;;
14187;SDS011;7175;51.978;5.330;2023-04-03T12:43:02;18.90;;;17.30;;
14187;SDS011;7175;51.978;5.330;2023-04-03T12:45:43;18.63;;;17.13;;
14187;SDS011;7175;51.978;5.330;2023-04-03T12:48:15;18.87;;;17.37;;
14187;SDS011;7175;51.978;5.330;2023-04-03T12:50:46;18.87;;;17.27;;
14187;SDS011;7175;51.978;5.330;2023-04-03T12:53:18;19.27;;;17.67;;
14187;SDS011;7175;51.978;5.330;2023-04-03T12:55:54;19.30;;;17.70;;
14187;SDS011;7175;51.978;5.330;2023-04-03T12:58:24;19.17;;;17.57;;
14187;SDS011;7175;51.978;5.330;2023-04-03T13:01:01;19.33;;;17.73;;
14187;SDS011;7175;51.978;5.330;2023-04-03T13:03:31;19.83;;;18.23;;
14187;SDS011;7175;51.978;5.330;2023-04-03T13:06:01;19.60;;;18.00;;
14187;SDS011;7175;51.978;5.330;2023-04-03T13:08:31;19.60;;;18.00;;
14187;SDS011;7175;51.978;5.330;2023-04-03T13:11:02;19.53;;;17.93;;
14187;SDS011;7175;51.978;5.330;2023-04-03T13:13:36;19.47;;;17.87;;
14187;SDS011;7175;51.978;5.330;2023-04-03T13:16:07;19.60;;;18.00;;
14187;SDS011;7175;51.978;5.330;2023-04-03T13:18:38;19.67;;;18.07;;
14187;SDS011;7175;51.978;5.330;2023-04-03T13:21:08;20.20;;;18.60;;
14187;SDS011;7175;51.978;5.330;2023-04-03T13:23:44;19.30;;;17.80;;
14187;SDS011;7175;51.978;5.330;2023-04-03T13:26:22;19.00;;;17.50;;
14187;SDS011;7175;51.978;5.330;2023-04-03T13:28:54;19.47;;;17.57;;
14187;SDS011;7175;51.978;5.330;2023-04-03T13:31:28;19.10;;;17.57;;
14187;SDS011;7175;51.978;5.330;2023-04-03T13:34:02;19.37;;;17.77;;
14187;SDS011;7175;51.978;5.330;2023-04-03T13:36:36;19.10;;;17.60;;
14187;SDS011;7175;51.978;5.330;2023-04-03T13:39:20;18.97;;;17.47;;
14187;SDS011;7175;51.978;5.330;2023-04-03T13:41:54;18.73;;;17.23;;
14187;SDS011;7175;51.978;5.330;2023-04-03T13:44:29;18.67;;;17.17;;
14187;SDS011;7175;51.978;5.330;2023-04-03T13:47:00;19.50;;;17.90;;
14187;SDS011;7175;51.978;5.330;2023-04-03T13:49:45;19.73;;;18.13;;
14187;SDS011;7175;51.978;5.330;2023-04-03T13:52:27;20.00;;;18.40;;
14187;SDS011;7175;51.978;5.330;2023-04-03T13:54:59;19.43;;;17.93;;
14187;SDS011;7175;51.978;5.330;2023-04-03T13:57:49;19.20;;;17.70;;
14187;SDS011;7175;51.978;5.330;2023-04-03T14:00:21;19.20;;;17.70;;
14187;SDS011;7175;51.978;5.330;2023-04-03T14:03:01;19.40;;;17.80;;
14187;SDS011;7175;51.978;5.330;2023-04-03T14:05:30;19.00;;;17.50;;
14187;SDS011;7175;51.978;5.330;2023-04-03T14:08:00;19.00;;;17.50;;
14187;SDS011;7175;51.978;5.330;2023-04-03T14:10:30;18.70;;;17.20;;
14187;SDS011;7175;51.978;5.330;2023-04-03T14:13:00;19.23;;;17.73;;
14187;SDS011;7175;51.978;5.330;2023-04-03T14:15:30;19.53;;;18.03;;
14187;SDS011;7175;51.978;5.330;2023-04-03T14:17:59;19.30;;;17.80;;
14187;SDS011;7175;51.978;5.330;2023-04-03T14:20:32;19.20;;;17.70;;
14187;SDS011;7175;51.978;5.330;2023-04-03T14:23:00;19.20;;;17.70;;
14187;SDS011;7175;51.978;5.330;2023-04-03T14:25:30;18.80;;;17.30;;
14187;SDS011;7175;51.978;5.330;2023-04-03T14:27:58;19.37;;;17.77;;
14187;SDS011;7175;51.978;5.330;2023-04-03T14:30:31;19.10;;;17.60;;
14187;SDS011;7175;51.978;5.330;2023-04-03T14:33:00;19.20;;;17.60;;
14187;SDS011;7175;51.978;5.330;2023-04-03T14:35:29;19.00;;;17.40;;
14187;SDS011;7175;51.978;5.330;2023-04-03T14:37:58;19.20;;;17.60;;
14187;SDS011;7175;51.978;5.330;2023-04-03T14:40:26;19.30;;;17.70;;
14187;SDS011;7175;51.978;5.330;2023-04-03T14:42:55;19.17;;;17.57;;
14187;SDS011;7175;51.978;5.330;2023-04-03T14:45:26;19.40;;;17.80;;
14187;SDS011;7175;51.978;5.330;2023-04-03T14:47:55;19.03;;;17.50;;
14187;SDS011;7175;51.978;5.330;2023-04-03T14:50:25;18.70;;;17.20;;
14187;SDS011;7175;51.978;5.330;2023-04-03T14:52:55;19.07;;;17.57;;
14187;SDS011;7175;51.978;5.330;2023-04-03T14:55:25;19.00;;;17.40;;
14187;SDS011;7175;51.978;5.330;2023-04-03T14:57:55;20.30;;;18.60;;
14187;SDS011;7175;51.978;5.330;2023-04-03T15:00:24;19.13;;;17.53;;
14187;SDS011;7175;51.978;5.330;2023-04-03T15:02:54;19.80;;;18.20;;
14187;SDS011;7175;51.978;5.330;2023-04-03T15:05:22;19.97;;;18.37;;
14187;SDS011;7175;51.978;5.330;2023-04-03T15:07:52;19.97;;;18.37;;
14187;SDS011;7175;51.978;5.330;2023-04-03T15:10:23;19.80;;;18.20;;
14187;SDS011;7175;51.978;5.330;2023-04-03T15:12:54;19.40;;;17.80;;
14187;SDS011;7175;51.978;5.330;2023-04-03T15:15:23;19.30;;;17.70;;
14187;SDS011;7175;51.978;5.330;2023-04-03T15:17:56;19.63;;;18.03;;
14187;SDS011;7175;51.978;5.330;2023-04-03T15:20:26;19.43;;;17.83;;
14187;SDS011;7175;51.978;5.330;2023-04-03T15:22:57;20.10;;;18.50;;
14187;SDS011;7175;51.978;5.330;2023-04-03T15:25:27;19.43;;;17.83;;